Aviation Digital Data Service (ADDS)

Output produced by METARs form (1025 UTC 17 February 2019)
found at http://aviationweather.gov/metar/data/
 
KPHX 170951Z 09004KT 10SM SCT100 07/00 A2992 RMK AO2 SLP128 T00720000
KPHX 170949Z 1710/1812 11004KT P6SM FEW100 SCT220 
     FM171200 12004KT P6SM SCT070 
     FM171800 25008KT P6SM BKN080 
     FM172100 25012G19KT P6SM FEW050 BKN080 
     FM180100 26013G21KT P6SM VCSH FEW050 BKN080 
     FM180900 19010KT P6SM -SHRA SCT050 BKN070